createdAt,value
2022-10-13T03:02:44.309Z,9.40
2022-10-13T03:05:12.259Z,9.40
2022-10-13T03:07:40.105Z,9.40
2022-10-13T03:10:08.431Z,9.40
2022-10-13T03:12:36.401Z,9.50
2022-10-13T03:15:04.850Z,9.50
2022-10-13T03:17:33.091Z,9.50
2022-10-13T03:20:02.344Z,9.40
2022-10-13T03:22:32.961Z,9.50
2022-10-13T03:25:00.891Z,9.60
2022-10-13T03:27:28.963Z,9.60
2022-10-13T03:29:56.876Z,9.60
2022-10-13T03:32:24.842Z,9.60
2022-10-13T03:34:53.069Z,9.50
2022-10-13T03:37:22.289Z,9.50
2022-10-13T03:39:50.157Z,9.50
2022-10-13T03:42:18.556Z,9.60
2022-10-13T03:44:55.208Z,9.60
2022-10-13T03:47:24.105Z,9.60
2022-10-13T03:49:55.079Z,9.60
2022-10-13T03:52:25.346Z,9.60
2022-10-13T03:54:53.277Z,9.60
2022-10-13T03:57:21.122Z,9.50
2022-10-13T03:59:49.181Z,9.50
2022-10-13T04:02:17.240Z,9.50
2022-10-13T04:04:45.345Z,9.50
2022-10-13T04:07:13.199Z,9.50
2022-10-13T04:09:42.415Z,9.50
2022-10-13T04:12:10.285Z,9.50
2022-10-13T04:14:38.143Z,9.50
2022-10-13T04:17:09.183Z,9.50
2022-10-13T04:19:37.096Z,9.50
2022-10-13T04:22:06.794Z,9.60
2022-10-13T04:24:34.994Z,9.60
2022-10-13T04:27:04.289Z,9.60
2022-10-13T04:29:32.371Z,9.60
2022-10-13T04:32:00.589Z,9.70
2022-10-13T04:34:28.469Z,9.70
2022-10-13T04:36:57.241Z,9.80
2022-10-13T04:39:25.182Z,9.80
2022-10-13T04:41:53.070Z,9.80
2022-10-13T04:44:22.575Z,9.80
2022-10-13T04:46:50.442Z,9.80
2022-10-13T04:49:18.720Z,9.90
2022-10-13T04:51:46.681Z,9.80
2022-10-13T04:54:14.774Z,9.80
2022-10-13T04:56:44.692Z,9.80
2022-10-13T04:59:12.783Z,9.90
2022-10-13T05:01:42.196Z,10.00
2022-10-13T05:04:14.372Z,10.10
2022-10-13T05:09:31.652Z,10.20
2022-10-13T05:11:59.533Z,10.30
2022-10-13T05:14:27.429Z,10.40
2022-10-13T05:16:56.648Z,10.40
2022-10-13T05:19:24.667Z,10.50
2022-10-13T05:21:53.064Z,10.50
2022-10-13T05:24:30.778Z,10.50
2022-10-13T05:26:58.905Z,10.60
2022-10-13T05:29:26.983Z,10.60
2022-10-13T05:31:56.198Z,10.60
2022-10-13T05:34:24.068Z,10.60
2022-10-13T05:36:51.919Z,10.60
2022-10-13T05:39:19.813Z,10.60
2022-10-13T05:41:47.867Z,10.60
2022-10-13T05:44:22.619Z,10.60
2022-10-13T05:46:57.892Z,10.60
2022-10-13T05:49:26.001Z,10.60
2022-10-13T05:51:58.332Z,10.60
2022-10-13T05:54:31.021Z,10.40
2022-10-13T05:57:03.691Z,10.30
2022-10-13T05:59:35.254Z,10.30
2022-10-13T06:02:07.938Z,10.30
2022-10-13T06:04:40.637Z,10.30
2022-10-13T06:07:09.990Z,10.40
2022-10-13T06:09:39.595Z,10.20
2022-10-13T06:12:08.606Z,10.30
2022-10-13T06:14:37.052Z,10.30
2022-10-13T06:17:09.853Z,10.40
2022-10-13T06:19:38.339Z,10.50
2022-10-13T06:22:09.053Z,10.60
2022-10-13T06:24:36.905Z,10.60
2022-10-13T06:27:08.245Z,10.60
2022-10-13T06:29:37.663Z,10.60
2022-10-13T06:32:06.236Z,10.60
2022-10-13T06:34:35.489Z,10.70
2022-10-13T06:37:03.373Z,10.60
2022-10-13T06:39:31.354Z,10.50
2022-10-13T06:42:04.014Z,10.50
2022-10-13T06:44:32.620Z,10.60
2022-10-13T06:47:03.158Z,10.70
2022-10-13T06:49:32.414Z,10.70
2022-10-13T06:52:02.205Z,10.80
2022-10-13T06:54:32.081Z,10.80
2022-10-13T06:56:59.947Z,10.90
2022-10-13T06:59:27.960Z,10.90
2022-10-13T07:01:55.847Z,10.80
2022-10-13T07:04:25.819Z,10.80
2022-10-13T07:06:58.135Z,10.70
2022-10-13T07:09:27.421Z,10.60
2022-10-13T07:11:55.546Z,10.70
2022-10-13T07:14:24.461Z,10.80
2022-10-13T07:16:52.325Z,10.90
2022-10-13T07:19:20.358Z,11.00
2022-10-13T07:21:48.246Z,10.90
2022-10-13T07:24:16.223Z,10.80
2022-10-13T07:26:45.431Z,10.80
2022-10-13T07:29:13.782Z,10.90
2022-10-13T07:31:43.225Z,11.00
2022-10-13T07:34:11.271Z,11.00
2022-10-13T07:36:41.581Z,11.00
2022-10-13T07:39:10.036Z,11.00
2022-10-13T07:41:38.517Z,11.10
2022-10-13T07:44:07.912Z,11.20
2022-10-13T07:46:35.753Z,11.20
2022-10-13T07:49:03.825Z,11.30
2022-10-13T07:51:32.113Z,11.30
2022-10-13T07:54:03.173Z,11.20
2022-10-13T07:56:31.148Z,11.00
2022-10-13T07:58:59.027Z,10.90
2022-10-13T08:01:28.342Z,11.00
2022-10-13T08:03:56.895Z,11.00
2022-10-13T08:06:24.852Z,11.10
2022-10-13T08:08:55.084Z,11.10
2022-10-13T08:11:24.372Z,11.30
2022-10-13T08:13:53.896Z,11.30
2022-10-13T08:16:21.769Z,11.50
2022-10-13T08:18:52.891Z,11.70
2022-10-13T08:24:15.876Z,12.00
2022-10-13T08:26:44.787Z,12.00
2022-10-13T08:29:23.301Z,12.00
2022-10-13T08:31:52.370Z,11.80
2022-10-13T08:34:24.867Z,11.80
2022-10-13T08:36:54.485Z,11.80
2022-10-13T08:39:24.892Z,11.90
2022-10-13T08:41:54.132Z,11.90
2022-10-13T08:47:31.587Z,11.80
2022-10-13T08:50:04.807Z,11.80
2022-10-13T08:52:47.879Z,11.80
2022-10-13T08:55:23.623Z,11.80
2022-10-13T08:57:51.879Z,12.00
2022-10-13T09:00:23.379Z,12.00
2022-10-13T09:02:51.652Z,12.10
2022-10-13T09:05:31.247Z,12.20
2022-10-13T09:08:11.727Z,12.30
2022-10-13T09:10:48.027Z,12.30
2022-10-13T09:13:19.590Z,12.40
2022-10-13T09:15:50.311Z,12.50
2022-10-13T09:18:18.512Z,12.60
2022-10-13T09:20:47.736Z,12.60
2022-10-13T09:23:21.483Z,12.70
2022-10-13T09:25:51.264Z,12.70
2022-10-13T09:28:23.293Z,12.70
2022-10-13T09:31:02.566Z,12.50
2022-10-13T09:33:30.706Z,12.50
2022-10-13T09:36:12.263Z,12.50
2022-10-13T09:38:46.190Z,12.50
2022-10-13T09:41:20.756Z,12.40
2022-10-13T09:44:09.502Z,12.40
2022-10-13T09:46:40.210Z,12.50
2022-10-13T09:49:30.042Z,12.60
2022-10-13T09:52:04.904Z,12.60
2022-10-13T09:54:44.709Z,12.70
2022-10-13T09:57:23.145Z,12.80
2022-10-13T09:59:52.677Z,13.00
2022-10-13T10:02:29.531Z,13.00
2022-10-13T10:05:04.001Z,13.00
2022-10-13T10:07:34.282Z,13.10
2022-10-13T10:10:06.014Z,13.20
2022-10-13T10:12:38.168Z,13.20
2022-10-13T10:15:20.090Z,13.40
2022-10-13T10:17:55.221Z,13.60
2022-10-13T10:20:45.881Z,13.70
2022-10-13T10:23:22.991Z,13.90
2022-10-13T10:25:59.770Z,14.10
2022-10-13T10:28:45.131Z,14.20
2022-10-13T10:31:25.046Z,14.30
2022-10-13T10:34:02.473Z,14.40
2022-10-13T10:36:41.382Z,14.50
2022-10-13T10:39:24.559Z,14.50
2022-10-13T10:42:01.944Z,14.60
2022-10-13T10:44:33.214Z,14.70
2022-10-13T10:47:06.076Z,14.80
2022-10-13T10:49:36.413Z,14.90
2022-10-13T10:52:08.905Z,14.90
2022-10-13T10:54:50.995Z,14.90
2022-10-13T10:57:25.530Z,15.00
2022-10-13T11:00:01.720Z,15.10
2022-10-13T11:02:42.509Z,15.20
2022-10-13T11:05:10.596Z,15.40
2022-10-13T11:07:57.555Z,15.50
2022-10-13T11:10:28.021Z,15.60
2022-10-13T11:13:26.254Z,15.70
2022-10-13T11:16:26.447Z,15.80
2022-10-13T11:19:10.324Z,15.80
2022-10-13T11:22:14.179Z,15.70
2022-10-13T11:25:29.927Z,15.70
2022-10-13T11:27:59.090Z,15.60
2022-10-13T11:30:50.196Z,15.50
2022-10-13T11:33:52.186Z,15.30
2022-10-13T11:36:55.066Z,15.30
2022-10-13T11:40:01.034Z,15.20
2022-10-13T11:42:51.541Z,15.20
2022-10-13T11:45:46.426Z,15.20
2022-10-13T11:48:40.003Z,15.30
2022-10-13T11:51:23.072Z,15.30
2022-10-13T11:53:57.606Z,15.30
2022-10-13T11:56:39.687Z,15.30
2022-10-13T11:59:21.294Z,15.40
2022-10-13T12:01:54.507Z,15.40
2022-10-13T12:04:29.371Z,15.40
2022-10-13T12:07:02.465Z,15.60
2022-10-13T12:09:32.442Z,15.70
2022-10-13T12:12:04.510Z,15.80
2022-10-13T12:17:24.372Z,15.90
2022-10-13T12:19:52.437Z,16.00
2022-10-13T12:22:20.373Z,16.00
2022-10-13T12:24:58.511Z,16.00
2022-10-13T12:27:28.843Z,16.00
2022-10-13T12:29:56.780Z,16.10
2022-10-13T12:32:27.626Z,16.10
2022-10-13T12:34:56.629Z,16.00
2022-10-13T12:37:30.902Z,16.00
2022-10-13T12:40:01.439Z,16.00
2022-10-13T12:42:33.871Z,15.90
2022-10-13T12:45:03.165Z,15.70
2022-10-13T12:47:49.913Z,15.70
2022-10-13T12:50:38.403Z,15.70
2022-10-13T12:53:24.817Z,15.80
2022-10-13T12:55:59.294Z,15.80
2022-10-13T12:58:30.498Z,15.80
2022-10-13T13:01:09.998Z,15.80
2022-10-13T13:03:40.969Z,15.70
2022-10-13T13:06:28.195Z,15.80
2022-10-13T13:09:26.749Z,15.80
2022-10-13T13:12:07.546Z,15.90
2022-10-13T13:14:39.174Z,16.00
2022-10-13T13:17:13.255Z,16.10
2022-10-13T13:19:45.595Z,16.30
2022-10-13T13:22:14.710Z,16.20
2022-10-13T13:24:44.758Z,16.30
2022-10-13T13:27:18.314Z,16.30
2022-10-13T13:29:47.227Z,16.20
2022-10-13T13:32:19.946Z,16.20
2022-10-13T13:34:50.052Z,16.10
2022-10-13T13:37:24.943Z,16.10
2022-10-13T13:39:53.211Z,16.00
2022-10-13T13:42:21.073Z,16.00
2022-10-13T13:44:50.290Z,15.90
2022-10-13T13:47:21.307Z,15.80
2022-10-13T13:49:53.458Z,15.80
2022-10-13T13:52:21.885Z,15.80
2022-10-13T13:54:50.669Z,15.80
2022-10-13T13:57:20.791Z,15.90
2022-10-13T13:59:48.971Z,16.00
2022-10-13T14:02:21.079Z,16.00
2022-10-13T14:04:50.561Z,16.00
2022-10-13T14:07:20.273Z,16.00
2022-10-13T14:09:49.038Z,16.10
2022-10-13T14:12:16.960Z,16.10
2022-10-13T14:14:44.913Z,16.00
2022-10-13T14:17:13.386Z,16.10
2022-10-13T14:19:43.171Z,16.10
2022-10-13T14:22:12.348Z,16.10
2022-10-13T14:24:40.343Z,16.10
2022-10-13T14:27:09.241Z,16.10
2022-10-13T14:29:37.301Z,16.20
2022-10-13T14:32:05.720Z,16.20
2022-10-13T14:34:33.697Z,16.20
2022-10-13T14:37:01.558Z,16.30
2022-10-13T14:39:31.022Z,16.30
2022-10-13T14:42:01.005Z,16.30
2022-10-13T14:44:28.877Z,16.30
2022-10-13T14:46:56.778Z,16.30
2022-10-13T14:49:25.502Z,16.30
2022-10-13T14:51:53.334Z,16.20
2022-10-13T14:54:21.189Z,16.20
2022-10-13T14:56:50.506Z,16.20
2022-10-13T14:59:18.509Z,16.20
2022-10-13T15:01:50.484Z,16.20
2022-10-13T15:04:18.364Z,16.20
2022-10-13T15:06:46.243Z,16.20
2022-10-13T15:09:14.181Z,16.20
2022-10-13T15:11:42.093Z,16.10
2022-10-13T15:14:11.542Z,16.10
2022-10-13T15:16:39.496Z,16.10
2022-10-13T15:19:07.451Z,16.00
2022-10-13T15:21:35.368Z,15.90
2022-10-13T15:24:04.426Z,15.90
2022-10-13T15:26:32.488Z,15.80
2022-10-13T15:29:00.475Z,15.80
2022-10-13T15:31:30.910Z,15.70
2022-10-13T15:33:58.834Z,15.70
2022-10-13T15:36:26.834Z,15.60
2022-10-13T15:38:54.749Z,15.60
2022-10-13T15:41:23.691Z,15.60
2022-10-13T15:43:52.092Z,15.60
2022-10-13T15:46:24.449Z,15.60
2022-10-13T15:48:55.375Z,15.60
2022-10-13T15:51:26.731Z,15.60
2022-10-13T15:53:56.317Z,15.50
2022-10-13T15:56:24.374Z,15.50
2022-10-13T15:58:52.256Z,15.50
2022-10-13T16:01:20.300Z,15.40
2022-10-13T16:03:48.183Z,15.40
2022-10-13T16:06:17.406Z,15.40
2022-10-13T16:08:45.250Z,15.30
2022-10-13T16:11:16.260Z,15.30
2022-10-13T16:13:47.678Z,15.30
2022-10-13T16:16:16.343Z,15.20
2022-10-13T16:18:45.891Z,15.20
2022-10-13T16:21:18.749Z,15.20
2022-10-13T16:23:49.068Z,15.20
2022-10-13T16:26:18.231Z,15.20
2022-10-13T16:28:46.636Z,15.20
2022-10-13T16:31:17.110Z,15.20
2022-10-13T16:33:46.531Z,15.10
2022-10-13T16:36:16.436Z,15.10
2022-10-13T16:38:45.212Z,15.00
2022-10-13T16:41:16.762Z,15.10
2022-10-13T16:43:45.248Z,15.10
2022-10-13T16:46:18.619Z,15.00
2022-10-13T16:48:47.790Z,14.90
2022-10-13T16:51:17.540Z,14.90
2022-10-13T16:53:48.838Z,14.90
2022-10-13T16:56:22.007Z,14.90
2022-10-13T16:58:51.463Z,14.90
2022-10-13T17:01:19.835Z,14.90
2022-10-13T17:03:50.015Z,14.90
2022-10-13T17:06:21.266Z,14.80
2022-10-13T17:08:55.755Z,14.80
2022-10-13T17:11:27.043Z,14.80
2022-10-13T17:13:56.558Z,14.80
2022-10-13T17:16:24.962Z,14.80
2022-10-13T17:18:52.937Z,14.70
2022-10-13T17:21:21.909Z,14.70
2022-10-13T17:23:50.015Z,14.70
2022-10-13T17:26:21.023Z,14.70
2022-10-13T17:28:50.364Z,14.60
2022-10-13T17:31:20.477Z,14.60
2022-10-13T17:33:49.716Z,14.50
2022-10-13T17:36:20.212Z,14.50
2022-10-13T17:38:48.878Z,14.50
2022-10-13T17:41:17.768Z,14.50
2022-10-13T17:43:52.071Z,14.50
2022-10-13T17:46:36.406Z,14.50
2022-10-13T17:49:05.349Z,14.50
2022-10-13T17:51:33.313Z,14.50
2022-10-13T17:54:01.569Z,14.50
2022-10-13T17:56:29.993Z,14.50
2022-10-13T17:59:00.197Z,14.60
2022-10-13T18:01:30.107Z,14.60
2022-10-13T18:03:59.537Z,14.60
2022-10-13T18:06:31.459Z,14.60
2022-10-13T18:09:05.786Z,14.50
2022-10-13T18:11:34.893Z,14.40
2022-10-13T18:14:04.603Z,14.30
2022-10-13T18:16:32.945Z,14.20
2022-10-13T18:19:00.992Z,14.20
2022-10-13T18:21:29.300Z,14.20
2022-10-13T18:23:58.678Z,14.20
2022-10-13T18:26:27.414Z,14.30
2022-10-13T18:28:55.775Z,14.30
2022-10-13T18:31:27.607Z,14.30
2022-10-13T18:33:59.588Z,14.30
2022-10-13T18:36:31.215Z,14.40
2022-10-13T18:39:03.703Z,14.40
2022-10-13T18:41:32.372Z,14.40
2022-10-13T18:44:00.287Z,14.40
2022-10-13T18:46:29.724Z,14.40
2022-10-13T18:48:58.238Z,14.40
2022-10-13T18:51:29.140Z,14.30
2022-10-13T18:54:01.827Z,14.30
2022-10-13T18:56:31.164Z,14.40
2022-10-13T18:59:01.273Z,14.40
2022-10-13T19:01:32.363Z,14.40
2022-10-13T19:04:01.190Z,14.40
2022-10-13T19:06:32.140Z,14.40
2022-10-13T19:09:02.051Z,14.40
2022-10-13T19:11:31.309Z,14.40
2022-10-13T19:14:00.600Z,14.30
2022-10-13T19:16:31.582Z,14.40
2022-10-13T19:18:59.801Z,14.40
2022-10-13T19:21:28.773Z,14.30
2022-10-13T19:23:59.834Z,14.30
2022-10-13T19:26:30.758Z,14.30
2022-10-13T19:29:01.704Z,14.40
2022-10-13T19:31:33.423Z,14.40
2022-10-13T19:34:03.750Z,14.40
2022-10-13T19:36:33.400Z,14.40
2022-10-13T19:39:02.955Z,14.30
2022-10-13T19:41:32.872Z,14.30
2022-10-13T19:44:01.733Z,14.30
2022-10-13T19:46:45.051Z,14.30
2022-10-13T19:49:15.395Z,14.30
2022-10-13T19:51:46.540Z,14.30
2022-10-13T19:54:14.642Z,14.30
2022-10-13T19:56:46.393Z,14.30
2022-10-13T19:59:14.481Z,14.30
2022-10-13T20:01:43.912Z,14.30
2022-10-13T20:04:17.864Z,14.30
2022-10-13T20:06:46.212Z,14.30
2022-10-13T20:09:14.264Z,14.40
2022-10-13T20:11:42.418Z,14.40
2022-10-13T20:14:10.390Z,14.40
2022-10-13T20:16:38.738Z,14.30
2022-10-13T20:19:09.414Z,14.30
2022-10-13T20:21:37.311Z,14.40
2022-10-13T20:24:05.322Z,14.30
2022-10-13T20:26:33.300Z,14.30
2022-10-13T20:29:01.336Z,14.30
2022-10-13T20:31:29.471Z,14.30
2022-10-13T20:33:58.945Z,14.30
2022-10-13T20:36:38.270Z,14.30
2022-10-13T20:39:06.753Z,14.30
2022-10-13T20:41:35.326Z,14.40
2022-10-13T20:44:03.676Z,14.30
2022-10-13T20:46:34.829Z,14.40
2022-10-13T20:49:10.876Z,14.30
2022-10-13T20:51:41.810Z,14.30
2022-10-13T20:54:09.721Z,14.30
2022-10-13T20:56:37.951Z,14.30
2022-10-13T20:59:07.577Z,14.40
2022-10-13T21:01:39.374Z,14.40
2022-10-13T21:04:07.576Z,14.30
2022-10-13T21:06:36.295Z,14.30
2022-10-13T21:09:07.795Z,14.30
2022-10-13T21:11:36.826Z,14.30
2022-10-13T21:14:06.811Z,14.30
2022-10-13T21:16:35.770Z,14.30
2022-10-13T21:19:07.474Z,14.20
2022-10-13T21:21:35.867Z,14.20
2022-10-13T21:24:07.435Z,14.20
2022-10-13T21:26:36.370Z,14.20
2022-10-13T21:29:05.136Z,14.20
